Terminal Aerodrome Forecast
Issued by NWS Wilmington, OH

Current Version | Previous Version | Graphics & Text | Print | Product List | Glossary On
Versions: 1 2 3 4 5 6 7 8 9 10 11 12 13 14 15 16 17 18 19 20 21 22
000
FTUS41 KILN 280500
TAFDAY
TAF
KDAY 280536Z 2806/2906 23006KT P6SM SCT050 SCT100 BKN250
     FM280900 02004KT P6SM SCT050
     FM281200 04004KT P6SM SCT250
     FM281500 09007KT P6SM SCT025
     FM281800 11007KT P6SM SCT040=

USA.gov is the U.S. government's official web portal to all federal, state and local government web resources and services.